sensor_id;sensor_type;location;lat;lon;timestamp;pressure;altitude;pressure_sealevel;temperature;humidity
35989;BME280;22064;42.672;23.282;2023-04-19T00:00:37;94265.63;;;10.47;100.00
35989;BME280;22064;42.672;23.282;2023-04-19T00:03:05;94257.06;;;10.52;100.00
35989;BME280;22064;42.672;23.282;2023-04-19T00:05:31;94269.59;;;10.23;100.00
35989;BME280;22064;42.672;23.282;2023-04-19T00:07:57;94256.16;;;10.04;100.00
35989;BME280;22064;42.672;23.282;2023-04-19T00:10:24;94261.72;;;9.85;100.00
35989;BME280;22064;42.672;23.282;2023-04-19T00:12:50;94258.63;;;9.61;100.00
35989;BME280;22064;42.672;23.282;2023-04-19T00:15:17;94249.94;;;9.51;100.00
35989;BME280;22064;42.672;23.282;2023-04-19T00:17:42;94256.44;;;9.53;100.00
35989;BME280;22064;42.672;23.282;2023-04-19T00:20:09;94254.78;;;9.42;100.00
35989;BME280;22064;42.672;23.282;2023-04-19T00:22:38;94265.38;;;9.35;100.00
35989;BME280;22064;42.672;23.282;2023-04-19T00:25:04;94255.16;;;9.29;100.00
35989;BME280;22064;42.672;23.282;2023-04-19T00:27:30;94242.78;;;9.14;100.00
35989;BME280;22064;42.672;23.282;2023-04-19T00:29:56;94247.47;;;9.17;100.00
35989;BME280;22064;42.672;23.282;2023-04-19T00:32:24;94234.91;;;9.09;100.00
35989;BME280;22064;42.672;23.282;2023-04-19T00:34:50;94246.94;;;9.15;100.00
35989;BME280;22064;42.672;23.282;2023-04-19T00:37:15;94234.13;;;9.08;100.00
35989;BME280;22064;42.672;23.282;2023-04-19T00:39:42;94242.09;;;9.01;100.00
35989;BME280;22064;42.672;23.282;2023-04-19T00:42:08;94243.72;;;9.08;100.00
35989;BME280;22064;42.672;23.282;2023-04-19T00:44:34;94240.00;;;8.98;100.00
35989;BME280;22064;42.672;23.282;2023-04-19T00:47:00;94239.31;;;9.08;100.00
35989;BME280;22064;42.672;23.282;2023-04-19T00:49:26;94237.47;;;9.04;100.00
35989;BME280;22064;42.672;23.282;2023-04-19T00:51:52;94242.31;;;9.00;100.00
35989;BME280;22064;42.672;23.282;2023-04-19T00:54:19;94239.38;;;8.91;100.00
35989;BME280;22064;42.672;23.282;2023-04-19T00:56:48;94236.31;;;8.94;100.00
35989;BME280;22064;42.672;23.282;2023-04-19T00:59:17;94236.50;;;9.10;100.00
35989;BME280;22064;42.672;23.282;2023-04-19T01:01:43;94234.84;;;9.25;100.00
35989;BME280;22064;42.672;23.282;2023-04-19T01:04:09;94234.66;;;9.32;100.00
35989;BME280;22064;42.672;23.282;2023-04-19T01:06:35;94225.47;;;9.24;100.00
35989;BME280;22064;42.672;23.282;2023-04-19T01:09:03;94230.00;;;9.12;100.00
35989;BME280;22064;42.672;23.282;2023-04-19T01:11:29;94212.94;;;8.94;100.00
35989;BME280;22064;42.672;23.282;2023-04-19T01:13:56;94223.38;;;8.99;100.00
35989;BME280;22064;42.672;23.282;2023-04-19T01:16:26;94227.72;;;8.94;100.00
35989;BME280;22064;42.672;23.282;2023-04-19T01:18:52;94222.84;;;8.97;100.00
35989;BME280;22064;42.672;23.282;2023-04-19T01:21:19;94224.88;;;8.95;100.00
35989;BME280;22064;42.672;23.282;2023-04-19T01:23:47;94220.06;;;8.82;100.00
35989;BME280;22064;42.672;23.282;2023-04-19T01:26:14;94208.91;;;8.65;100.00
35989;BME280;22064;42.672;23.282;2023-04-19T01:28:41;94214.22;;;8.53;100.00
35989;BME280;22064;42.672;23.282;2023-04-19T01:31:08;94216.53;;;8.71;100.00
35989;BME280;22064;42.672;23.282;2023-04-19T01:33:35;94222.03;;;8.75;100.00
35989;BME280;22064;42.672;23.282;2023-04-19T01:36:01;94215.94;;;8.64;100.00
35989;BME280;22064;42.672;23.282;2023-04-19T01:38:27;94209.09;;;8.58;100.00
35989;BME280;22064;42.672;23.282;2023-04-19T01:40:53;94214.88;;;8.65;100.00
35989;BME280;22064;42.672;23.282;2023-04-19T01:43:23;94217.88;;;8.74;100.00
35989;BME280;22064;42.672;23.282;2023-04-19T01:45:49;94212.41;;;8.53;100.00
35989;BME280;22064;42.672;23.282;2023-04-19T01:48:15;94215.06;;;8.59;100.00
35989;BME280;22064;42.672;23.282;2023-04-19T01:50:41;94216.63;;;8.60;100.00
35989;BME280;22064;42.672;23.282;2023-04-19T01:53:06;94206.72;;;8.56;100.00
35989;BME280;22064;42.672;23.282;2023-04-19T01:55:32;94214.38;;;8.46;100.00
35989;BME280;22064;42.672;23.282;2023-04-19T01:57:58;94217.06;;;8.51;100.00
35989;BME280;22064;42.672;23.282;2023-04-19T02:00:25;94226.50;;;8.41;100.00
35989;BME280;22064;42.672;23.282;2023-04-19T02:02:51;94202.63;;;8.39;100.00
35989;BME280;22064;42.672;23.282;2023-04-19T02:05:16;94222.16;;;8.29;100.00
35989;BME280;22064;42.672;23.282;2023-04-19T02:07:42;94218.41;;;8.20;100.00
35989;BME280;22064;42.672;23.282;2023-04-19T02:10:09;94225.09;;;8.16;100.00
35989;BME280;22064;42.672;23.282;2023-04-19T02:12:36;94227.13;;;8.14;100.00
35989;BME280;22064;42.672;23.282;2023-04-19T02:15:03;94221.84;;;8.09;100.00
35989;BME280;22064;42.672;23.282;2023-04-19T02:17:29;94231.13;;;8.22;100.00
35989;BME280;22064;42.672;23.282;2023-04-19T02:19:56;94219.50;;;8.07;100.00
35989;BME280;22064;42.672;23.282;2023-04-19T02:22:22;94218.25;;;8.10;100.00
35989;BME280;22064;42.672;23.282;2023-04-19T02:24:49;94217.16;;;8.23;100.00
35989;BME280;22064;42.672;23.282;2023-04-19T02:27:15;94218.69;;;8.24;100.00
35989;BME280;22064;42.672;23.282;2023-04-19T02:29:41;94219.50;;;8.24;100.00
35989;BME280;22064;42.672;23.282;2023-04-19T02:32:07;94208.19;;;8.14;100.00
35989;BME280;22064;42.672;23.282;2023-04-19T02:34:34;94214.47;;;8.18;100.00
35989;BME280;22064;42.672;23.282;2023-04-19T02:37:00;94202.69;;;8.10;100.00
35989;BME280;22064;42.672;23.282;2023-04-19T02:39:28;94218.47;;;8.08;100.00
35989;BME280;22064;42.672;23.282;2023-04-19T02:41:54;94209.66;;;8.09;100.00
35989;BME280;22064;42.672;23.282;2023-04-19T02:44:21;94198.88;;;8.34;100.00
35989;BME280;22064;42.672;23.282;2023-04-19T02:46:50;94213.03;;;8.27;100.00
35989;BME280;22064;42.672;23.282;2023-04-19T02:49:18;94213.53;;;8.24;100.00
35989;BME280;22064;42.672;23.282;2023-04-19T02:51:44;94210.44;;;8.44;100.00
35989;BME280;22064;42.672;23.282;2023-04-19T02:54:12;94213.19;;;8.37;100.00
35989;BME280;22064;42.672;23.282;2023-04-19T02:56:40;94210.84;;;8.19;100.00
35989;BME280;22064;42.672;23.282;2023-04-19T02:59:06;94204.16;;;8.06;100.00
35989;BME280;22064;42.672;23.282;2023-04-19T03:01:32;94212.88;;;8.00;100.00
35989;BME280;22064;42.672;23.282;2023-04-19T03:04:01;94208.66;;;8.10;100.00
35989;BME280;22064;42.672;23.282;2023-04-19T03:06:28;94204.41;;;8.04;100.00
35989;BME280;22064;42.672;23.282;2023-04-19T03:08:54;94214.28;;;8.24;100.00
35989;BME280;22064;42.672;23.282;2023-04-19T03:11:20;94207.63;;;8.12;100.00
35989;BME280;22064;42.672;23.282;2023-04-19T03:13:46;94210.16;;;8.23;100.00
35989;BME280;22064;42.672;23.282;2023-04-19T03:16:13;94216.03;;;8.02;100.00
35989;BME280;22064;42.672;23.282;2023-04-19T03:18:40;94214.31;;;8.07;100.00
35989;BME280;22064;42.672;23.282;2023-04-19T03:21:06;94209.91;;;8.08;100.00
35989;BME280;22064;42.672;23.282;2023-04-19T03:23:46;94205.03;;;8.12;100.00
35989;BME280;22064;42.672;23.282;2023-04-19T03:26:12;94195.28;;;8.19;100.00
35989;BME280;22064;42.672;23.282;2023-04-19T03:28:45;94196.63;;;8.04;100.00
35989;BME280;22064;42.672;23.282;2023-04-19T03:31:22;94207.72;;;8.17;100.00
35989;BME280;22064;42.672;23.282;2023-04-19T03:33:50;94213.06;;;8.10;100.00
35989;BME280;22064;42.672;23.282;2023-04-19T03:36:17;94203.94;;;8.07;100.00
35989;BME280;22064;42.672;23.282;2023-04-19T03:38:46;94205.97;;;8.05;100.00
35989;BME280;22064;42.672;23.282;2023-04-19T03:41:23;94209.13;;;8.07;100.00
35989;BME280;22064;42.672;23.282;2023-04-19T03:44:18;94210.69;;;8.08;100.00
35989;BME280;22064;42.672;23.282;2023-04-19T03:46:46;94214.13;;;7.97;100.00
35989;BME280;22064;42.672;23.282;2023-04-19T03:49:16;94214.22;;;7.85;100.00
35989;BME280;22064;42.672;23.282;2023-04-19T03:51:45;94205.97;;;8.05;100.00
35989;BME280;22064;42.672;23.282;2023-04-19T03:54:11;94219.50;;;8.07;100.00
35989;BME280;22064;42.672;23.282;2023-04-19T03:56:37;94203.47;;;7.94;100.00
35989;BME280;22064;42.672;23.282;2023-04-19T03:59:03;94202.84;;;7.86;100.00
35989;BME280;22064;42.672;23.282;2023-04-19T04:01:32;94203.63;;;7.87;100.00
35989;BME280;22064;42.672;23.282;2023-04-19T04:04:00;94208.34;;;7.90;100.00
35989;BME280;22064;42.672;23.282;2023-04-19T04:06:26;94201.25;;;8.02;100.00
35989;BME280;22064;42.672;23.282;2023-04-19T04:08:52;94202.69;;;7.93;100.00
35989;BME280;22064;42.672;23.282;2023-04-19T04:11:19;94212.25;;;8.09;100.00
35989;BME280;22064;42.672;23.282;2023-04-19T04:13:47;94206.84;;;8.11;100.00
35989;BME280;22064;42.672;23.282;2023-04-19T04:16:19;94211.78;;;8.13;100.00
35989;BME280;22064;42.672;23.282;2023-04-19T04:18:46;94202.53;;;8.17;100.00
35989;BME280;22064;42.672;23.282;2023-04-19T04:21:13;94210.06;;;8.18;100.00
35989;BME280;22064;42.672;23.282;2023-04-19T04:23:42;94209.28;;;8.18;100.00
35989;BME280;22064;42.672;23.282;2023-04-19T04:26:14;94211.31;;;7.99;100.00
35989;BME280;22064;42.672;23.282;2023-04-19T04:29:12;94200.97;;;7.99;100.00
35989;BME280;22064;42.672;23.282;2023-04-19T04:31:39;94215.25;;;8.01;100.00
35989;BME280;22064;42.672;23.282;2023-04-19T04:34:05;94221.91;;;7.97;100.00
35989;BME280;22064;42.672;23.282;2023-04-19T04:36:36;94211.22;;;7.94;100.00
35989;BME280;22064;42.672;23.282;2023-04-19T04:39:03;94219.88;;;7.99;100.00
35989;BME280;22064;42.672;23.282;2023-04-19T04:41:31;94206.31;;;7.92;100.00
35989;BME280;22064;42.672;23.282;2023-04-19T04:43:57;94238.50;;;7.96;100.00
35989;BME280;22064;42.672;23.282;2023-04-19T04:46:25;94233.31;;;7.96;100.00
35989;BME280;22064;42.672;23.282;2023-04-19T04:48:52;94221.06;;;7.92;100.00
35989;BME280;22064;42.672;23.282;2023-04-19T04:51:19;94222.84;;;7.91;100.00
35989;BME280;22064;42.672;23.282;2023-04-19T04:53:48;94226.94;;;7.87;100.00
35989;BME280;22064;42.672;23.282;2023-04-19T04:56:14;94207.47;;;7.84;100.00
35989;BME280;22064;42.672;23.282;2023-04-19T04:58:40;94217.28;;;7.82;100.00
35989;BME280;22064;42.672;23.282;2023-04-19T05:01:10;94225.53;;;7.79;100.00
35989;BME280;22064;42.672;23.282;2023-04-19T05:03:38;94227.56;;;7.77;100.00
35989;BME280;22064;42.672;23.282;2023-04-19T05:06:09;94220.72;;;7.88;100.00
35989;BME280;22064;42.672;23.282;2023-04-19T05:08:35;94228.91;;;7.80;100.00
35989;BME280;22064;42.672;23.282;2023-04-19T05:11:16;94238.75;;;7.95;100.00
35989;BME280;22064;42.672;23.282;2023-04-19T05:13:43;94220.34;;;7.96;100.00
35989;BME280;22064;42.672;23.282;2023-04-19T05:16:10;94227.81;;;7.93;100.00
35989;BME280;22064;42.672;23.282;2023-04-19T05:18:37;94236.28;;;7.88;100.00
35989;BME280;22064;42.672;23.282;2023-04-19T05:21:04;94235.91;;;7.96;100.00
35989;BME280;22064;42.672;23.282;2023-04-19T05:23:31;94237.56;;;8.02;100.00
35989;BME280;22064;42.672;23.282;2023-04-19T05:25:58;94233.78;;;7.93;100.00
35989;BME280;22064;42.672;23.282;2023-04-19T05:28:26;94236.28;;;7.88;100.00
35989;BME280;22064;42.672;23.282;2023-04-19T05:31:01;94245.25;;;7.97;100.00
35989;BME280;22064;42.672;23.282;2023-04-19T05:33:32;94243.22;;;7.82;100.00
35989;BME280;22064;42.672;23.282;2023-04-19T05:35:59;94242.91;;;7.79;100.00
35989;BME280;22064;42.672;23.282;2023-04-19T05:38:25;94239.38;;;8.02;100.00
35989;BME280;22064;42.672;23.282;2023-04-19T05:40:55;94232.28;;;7.97;100.00
35989;BME280;22064;42.672;23.282;2023-04-19T05:43:20;94232.69;;;7.89;100.00
35989;BME280;22064;42.672;23.282;2023-04-19T05:45:46;94246.66;;;7.88;100.00
35989;BME280;22064;42.672;23.282;2023-04-19T05:48:12;94230.00;;;7.84;100.00
35989;BME280;22064;42.672;23.282;2023-04-19T05:50:58;94248.25;;;7.89;100.00
35989;BME280;22064;42.672;23.282;2023-04-19T05:53:45;94240.25;;;8.07;100.00
35989;BME280;22064;42.672;23.282;2023-04-19T05:56:11;94243.84;;;7.90;100.00
35989;BME280;22064;42.672;23.282;2023-04-19T05:58:37;94245.41;;;7.91;100.00
35989;BME280;22064;42.672;23.282;2023-04-19T06:01:03;94236.78;;;8.02;100.00
35989;BME280;22064;42.672;23.282;2023-04-19T06:03:32;94235.34;;;7.94;100.00
35989;BME280;22064;42.672;23.282;2023-04-19T06:05:58;94231.28;;;8.15;100.00
35989;BME280;22064;42.672;23.282;2023-04-19T06:08:24;94251.63;;;8.06;100.00
35989;BME280;22064;42.672;23.282;2023-04-19T06:10:53;94248.03;;;8.07;100.00
35989;BME280;22064;42.672;23.282;2023-04-19T06:13:21;94244.03;;;8.17;100.00
35989;BME280;22064;42.672;23.282;2023-04-19T06:15:47;94255.34;;;8.10;100.00
35989;BME280;22064;42.672;23.282;2023-04-19T06:18:13;94245.72;;;8.28;100.00
35989;BME280;22064;42.672;23.282;2023-04-19T06:20:39;94255.41;;;8.32;100.00
35989;BME280;22064;42.672;23.282;2023-04-19T06:23:06;94251.09;;;8.55;100.00
35989;BME280;22064;42.672;23.282;2023-04-19T06:25:32;94249.53;;;8.54;100.00
35989;BME280;22064;42.672;23.282;2023-04-19T06:27:58;94253.97;;;8.75;100.00
35989;BME280;22064;42.672;23.282;2023-04-19T06:30:24;94243.25;;;8.72;100.00
35989;BME280;22064;42.672;23.282;2023-04-19T06:32:50;94252.47;;;8.79;100.00
35989;BME280;22064;42.672;23.282;2023-04-19T06:35:17;94243.44;;;9.04;100.00
35989;BME280;22064;42.672;23.282;2023-04-19T06:37:43;94263.69;;;8.63;100.00
35989;BME280;22064;42.672;23.282;2023-04-19T06:40:09;94255.41;;;8.66;100.00
35989;BME280;22064;42.672;23.282;2023-04-19T06:42:36;94259.22;;;8.81;100.00
35989;BME280;22064;42.672;23.282;2023-04-19T06:45:05;94250.53;;;8.70;100.00
35989;BME280;22064;42.672;23.282;2023-04-19T06:47:32;94246.63;;;8.89;100.00
35989;BME280;22064;42.672;23.282;2023-04-19T06:49:58;94253.94;;;8.92;100.00
35989;BME280;22064;42.672;23.282;2023-04-19T06:52:24;94235.88;;;9.02;100.00
35989;BME280;22064;42.672;23.282;2023-04-19T06:54:51;94253.81;;;9.26;100.00
35989;BME280;22064;42.672;23.282;2023-04-19T06:57:17;94258.03;;;8.88;100.00
35989;BME280;22064;42.672;23.282;2023-04-19T06:59:43;94258.03;;;8.88;100.00
35989;BME280;22064;42.672;23.282;2023-04-19T07:02:09;94268.19;;;8.90;100.00
35989;BME280;22064;42.672;23.282;2023-04-19T07:04:36;94260.75;;;8.98;100.00
35989;BME280;22064;42.672;23.282;2023-04-19T07:07:02;94260.69;;;8.93;100.00
35989;BME280;22064;42.672;23.282;2023-04-19T07:09:28;94259.25;;;9.02;100.00
35989;BME280;22064;42.672;23.282;2023-04-19T07:11:55;94251.13;;;9.16;100.00
35989;BME280;22064;42.672;23.282;2023-04-19T07:14:21;94252.38;;;9.35;100.00
35989;BME280;22064;42.672;23.282;2023-04-19T07:16:48;94269.59;;;9.19;100.00
35989;BME280;22064;42.672;23.282;2023-04-19T07:19:14;94249.41;;;9.27;100.00
35989;BME280;22064;42.672;23.282;2023-04-19T07:21:40;94251.34;;;9.36;100.00
35989;BME280;22064;42.672;23.282;2023-04-19T07:24:06;94266.63;;;9.11;100.00
35989;BME280;22064;42.672;23.282;2023-04-19T07:26:32;94268.97;;;9.34;100.00
35989;BME280;22064;42.672;23.282;2023-04-19T07:28:59;94265.59;;;9.12;100.00
35989;BME280;22064;42.672;23.282;2023-04-19T07:31:26;94269.16;;;9.06;100.00
35989;BME280;22064;42.672;23.282;2023-04-19T07:33:53;94261.50;;;9.16;100.00
35989;BME280;22064;42.672;23.282;2023-04-19T07:36:19;94269.28;;;9.38;100.00
35989;BME280;22064;42.672;23.282;2023-04-19T07:38:46;94270.38;;;9.20;100.00
35989;BME280;22064;42.672;23.282;2023-04-19T07:41:12;94256.63;;;9.46;100.00
35989;BME280;22064;42.672;23.282;2023-04-19T07:43:38;94271.94;;;9.43;100.00
35989;BME280;22064;42.672;23.282;2023-04-19T07:46:12;94265.56;;;9.56;100.00
35989;BME280;22064;42.672;23.282;2023-04-19T07:48:38;94268.06;;;9.45;100.00
35989;BME280;22064;42.672;23.282;2023-04-19T07:51:12;94271.91;;;9.65;100.00
35989;BME280;22064;42.672;23.282;2023-04-19T07:53:39;94270.69;;;9.73;100.00
35989;BME280;22064;42.672;23.282;2023-04-19T07:56:06;94258.13;;;9.64;100.00
35989;BME280;22064;42.672;23.282;2023-04-19T07:58:34;94269.44;;;9.75;100.00
35989;BME280;22064;42.672;23.282;2023-04-19T08:00:59;94273.63;;;9.54;100.00
35989;BME280;22064;42.672;23.282;2023-04-19T08:03:26;94265.28;;;9.52;100.00
35989;BME280;22064;42.672;23.282;2023-04-19T08:05:52;94268.22;;;9.61;100.00
35989;BME280;22064;42.672;23.282;2023-04-19T08:08:18;94269.59;;;9.68;100.00
35989;BME280;22064;42.672;23.282;2023-04-19T08:10:44;94268.47;;;9.86;100.00
35989;BME280;22064;42.672;23.282;2023-04-19T08:13:10;94282.31;;;9.92;100.00
35989;BME280;22064;42.672;23.282;2023-04-19T08:15:36;94266.16;;;9.90;100.00
35989;BME280;22064;42.672;23.282;2023-04-19T08:18:02;94272.03;;;9.75;100.00
35989;BME280;22064;42.672;23.282;2023-04-19T08:20:30;94265.03;;;9.81;100.00
35989;BME280;22064;42.672;23.282;2023-04-19T08:22:57;94269.78;;;9.62;100.00
35989;BME280;22064;42.672;23.282;2023-04-19T08:25:23;94273.03;;;9.74;100.00
35989;BME280;22064;42.672;23.282;2023-04-19T08:27:56;94278.59;;;9.83;100.00
35989;BME280;22064;42.672;23.282;2023-04-19T08:30:23;94267.22;;;9.89;100.00
35989;BME280;22064;42.672;23.282;2023-04-19T08:32:49;94274.13;;;9.78;100.00
35989;BME280;22064;42.672;23.282;2023-04-19T08:35:15;94271.00;;;9.76;100.00
35989;BME280;22064;42.672;23.282;2023-04-19T08:37:42;94270.91;;;9.66;100.00
35989;BME280;22064;42.672;23.282;2023-04-19T08:40:08;94270.00;;;9.82;100.00
35989;BME280;22064;42.672;23.282;2023-04-19T08:42:36;94265.44;;;9.67;100.00
35989;BME280;22064;42.672;23.282;2023-04-19T08:45:03;94259.19;;;9.95;100.00
35989;BME280;22064;42.672;23.282;2023-04-19T08:47:34;94261.69;;;10.12;100.00
35989;BME280;22064;42.672;23.282;2023-04-19T08:50:03;94251.69;;;9.99;100.00
35989;BME280;22064;42.672;23.282;2023-04-19T08:52:29;94265.25;;;10.28;100.00
35989;BME280;22064;42.672;23.282;2023-04-19T08:55:09;94246.53;;;10.36;100.00
35989;BME280;22064;42.672;23.282;2023-04-19T08:57:35;94249.88;;;10.27;100.00
35989;BME280;22064;42.672;23.282;2023-04-19T09:00:02;94254.03;;;10.65;100.00
35989;BME280;22064;42.672;23.282;2023-04-19T09:02:51;94253.25;;;10.64;100.00
35989;BME280;22064;42.672;23.282;2023-04-19T09:05:18;94256.72;;;10.75;100.00
35989;BME280;22064;42.672;23.282;2023-04-19T09:07:45;94249.53;;;10.55;100.00
35989;BME280;22064;42.672;23.282;2023-04-19T09:10:14;94253.88;;;10.82;100.00
35989;BME280;22064;42.672;23.282;2023-04-19T09:12:41;94248.91;;;10.75;100.00
35989;BME280;22064;42.672;23.282;2023-04-19T09:15:08;94249.91;;;10.69;100.00
35989;BME280;22064;42.672;23.282;2023-04-19T09:17:35;94232.50;;;10.80;100.00
35989;BME280;22064;42.672;23.282;2023-04-19T09:20:03;94247.06;;;11.33;100.00
35989;BME280;22064;42.672;23.282;2023-04-19T09:22:29;94236.63;;;11.33;100.00
35989;BME280;22064;42.672;23.282;2023-04-19T09:24:57;94238.06;;;10.99;100.00
35989;BME280;22064;42.672;23.282;2023-04-19T09:27:31;94219.31;;;11.02;100.00
35989;BME280;22064;42.672;23.282;2023-04-19T09:30:01;94232.59;;;10.95;100.00
35989;BME280;22064;42.672;23.282;2023-04-19T09:32:28;94241.16;;;10.91;100.00
35989;BME280;22064;42.672;23.282;2023-04-19T09:34:56;94234.16;;;11.01;100.00
35989;BME280;22064;42.672;23.282;2023-04-19T09:37:22;94231.63;;;11.17;100.00
35989;BME280;22064;42.672;23.282;2023-04-19T09:39:49;94229.97;;;10.95;100.00
35989;BME280;22064;42.672;23.282;2023-04-19T09:42:15;94237.72;;;11.48;100.00
35989;BME280;22064;42.672;23.282;2023-04-19T09:44:56;94229.38;;;11.46;100.00
35989;BME280;22064;42.672;23.282;2023-04-19T09:47:24;94231.03;;;11.77;100.00
35989;BME280;22064;42.672;23.282;2023-04-19T09:50:11;94225.28;;;11.80;100.00
35989;BME280;22064;42.672;23.282;2023-04-19T09:52:37;94239.84;;;11.56;100.00
35989;BME280;22064;42.672;23.282;2023-04-19T09:55:05;94217.28;;;11.14;100.00
35989;BME280;22064;42.672;23.282;2023-04-19T09:57:32;94216.59;;;11.39;100.00
35989;BME280;22064;42.672;23.282;2023-04-19T10:00:00;94232.75;;;11.46;100.00
35989;BME280;22064;42.672;23.282;2023-04-19T10:02:30;94212.47;;;11.64;100.00
35989;BME280;22064;42.672;23.282;2023-04-19T10:05:00;94224.69;;;11.38;100.00
35989;BME280;22064;42.672;23.282;2023-04-19T10:07:30;94208.25;;;11.52;100.00
35989;BME280;22064;42.672;23.282;2023-04-19T10:09:57;94212.81;;;11.98;100.00
35989;BME280;22064;42.672;23.282;2023-04-19T10:12:25;94209.94;;;12.25;100.00
35989;BME280;22064;42.672;23.282;2023-04-19T10:14:53;94203.16;;;11.88;100.00
35989;BME280;22064;42.672;23.282;2023-04-19T10:17:21;94207.31;;;11.89;100.00
35989;BME280;22064;42.672;23.282;2023-04-19T10:19:55;94207.59;;;11.98;100.00
35989;BME280;22064;42.672;23.282;2023-04-19T10:22:22;94207.34;;;12.25;100.00
35989;BME280;22064;42.672;23.282;2023-04-19T10:25:08;94214.38;;;12.04;100.00
35989;BME280;22064;42.672;23.282;2023-04-19T10:27:37;94214.38;;;11.94;100.00
35989;BME280;22064;42.672;23.282;2023-04-19T10:30:03;94192.44;;;12.10;100.00
35989;BME280;22064;42.672;23.282;2023-04-19T10:32:39;94193.47;;;12.14;100.00
35989;BME280;22064;42.672;23.282;2023-04-19T10:35:15;94198.97;;;12.28;100.00
35989;BME280;22064;42.672;23.282;2023-04-19T10:38:01;94198.66;;;12.60;100.00
35989;BME280;22064;42.672;23.282;2023-04-19T10:40:58;94178.28;;;12.57;100.00
35989;BME280;22064;42.672;23.282;2023-04-19T10:43:35;94198.69;;;12.35;100.00
35989;BME280;22064;42.672;23.282;2023-04-19T10:46:06;94174.63;;;12.68;100.00
35989;BME280;22064;42.672;23.282;2023-04-19T10:48:33;94178.28;;;12.52;100.00
35989;BME280;22064;42.672;23.282;2023-04-19T10:51:10;94184.84;;;12.39;100.00
35989;BME280;22064;42.672;23.282;2023-04-19T10:54:04;94189.72;;;12.82;100.00
35989;BME280;22064;42.672;23.282;2023-04-19T11:01:49;94166.88;;;12.22;100.00
35989;BME280;22064;42.672;23.282;2023-04-19T11:04:21;94166.25;;;12.71;100.00
35989;BME280;22064;42.672;23.282;2023-04-19T11:09:39;94157.06;;;13.44;100.00
35989;BME280;22064;42.672;23.282;2023-04-19T11:12:17;94163.34;;;12.73;100.00
35989;BME280;22064;42.672;23.282;2023-04-19T11:14:46;94159.91;;;12.88;100.00
35989;BME280;22064;42.672;23.282;2023-04-19T11:17:24;94145.84;;;12.84;100.00
35989;BME280;22064;42.672;23.282;2023-04-19T11:22:17;94157.59;;;13.41;100.00
35989;BME280;22064;42.672;23.282;2023-04-19T11:24:44;94149.22;;;13.44;100.00
35989;BME280;22064;42.672;23.282;2023-04-19T11:27:12;94165.28;;;13.17;100.00
35989;BME280;22064;42.672;23.282;2023-04-19T11:29:38;94156.63;;;13.22;100.00
35989;BME280;22064;42.672;23.282;2023-04-19T11:32:04;94153.97;;;13.37;100.00
35989;BME280;22064;42.672;23.282;2023-04-19T11:34:36;94167.69;;;13.58;100.00
35989;BME280;22064;42.672;23.282;2023-04-19T11:37:02;94149.19;;;13.49;100.00
35989;BME280;22064;42.672;23.282;2023-04-19T11:39:29;94148.78;;;13.27;100.00
35989;BME280;22064;42.672;23.282;2023-04-19T11:41:54;94150.13;;;13.63;100.00
35989;BME280;22064;42.672;23.282;2023-04-19T11:44:20;94141.78;;;13.61;100.00
35989;BME280;22064;42.672;23.282;2023-04-19T11:46:57;94158.66;;;13.79;98.45
35989;BME280;22064;42.672;23.282;2023-04-19T11:49:27;94156.97;;;13.59;92.71
35989;BME280;22064;42.672;23.282;2023-04-19T11:51:57;94155.34;;;13.69;96.25
35989;BME280;22064;42.672;23.282;2023-04-19T11:54:24;94145.31;;;14.10;90.00
35989;BME280;22064;42.672;23.282;2023-04-19T11:57:01;94131.22;;;14.06;89.52
35989;BME280;22064;42.672;23.282;2023-04-19T11:59:32;94129.63;;;14.10;98.38
35989;BME280;22064;42.672;23.282;2023-04-19T12:02:09;94158.03;;;13.58;100.00
35989;BME280;22064;42.672;23.282;2023-04-19T12:04:36;94137.91;;;13.54;100.00
35989;BME280;22064;42.672;23.282;2023-04-19T12:07:04;94126.34;;;13.94;100.00
35989;BME280;22064;42.672;23.282;2023-04-19T12:09:34;94138.25;;;14.40;100.00
35989;BME280;22064;42.672;23.282;2023-04-19T12:12:01;94127.66;;;14.55;95.85
35989;BME280;22064;42.672;23.282;2023-04-19T12:14:28;94130.84;;;14.47;79.32
35989;BME280;22064;42.672;23.282;2023-04-19T12:17:11;94144.75;;;14.42;78.89
35989;BME280;22064;42.672;23.282;2023-04-19T12:19:45;94130.69;;;14.09;87.82
35989;BME280;22064;42.672;23.282;2023-04-19T12:22:17;94127.78;;;14.10;91.55
35989;BME280;22064;42.672;23.282;2023-04-19T12:24:52;94122.47;;;14.74;84.04
35989;BME280;22064;42.672;23.282;2023-04-19T12:27:18;94109.53;;;15.01;79.56
35989;BME280;22064;42.672;23.282;2023-04-19T12:29:44;94121.84;;;14.58;69.67
35989;BME280;22064;42.672;23.282;2023-04-19T12:32:10;94126.75;;;14.36;69.25
35989;BME280;22064;42.672;23.282;2023-04-19T12:34:37;94126.50;;;14.37;78.24
35989;BME280;22064;42.672;23.282;2023-04-19T12:37:03;94108.78;;;14.00;87.88
35989;BME280;22064;42.672;23.282;2023-04-19T12:39:29;94116.91;;;14.75;85.12
35989;BME280;22064;42.672;23.282;2023-04-19T12:41:55;94107.47;;;14.50;84.87
35989;BME280;22064;42.672;23.282;2023-04-19T12:44:22;94123.69;;;14.28;95.46
35989;BME280;22064;42.672;23.282;2023-04-19T12:46:48;94134.22;;;13.89;96.01
35989;BME280;22064;42.672;23.282;2023-04-19T12:49:17;94098.75;;;13.78;100.00
35989;BME280;22064;42.672;23.282;2023-04-19T12:51:43;94135.56;;;14.21;100.00
35989;BME280;22064;42.672;23.282;2023-04-19T12:54:12;94117.06;;;14.36;96.58
35989;BME280;22064;42.672;23.282;2023-04-19T12:56:38;94117.69;;;15.19;85.56
35989;BME280;22064;42.672;23.282;2023-04-19T12:59:04;94121.22;;;15.66;80.92
35989;BME280;22064;42.672;23.282;2023-04-19T13:01:31;94129.03;;;14.71;87.99
35989;BME280;22064;42.672;23.282;2023-04-19T13:03:57;94116.41;;;14.49;93.53